Time;durP1;ratioP1;P1;durP2;ratioP2;P2;SDS_P1;SDS_P2;PMS_P1;PMS_P2;Temp;Humidity;BMP_temperature;BMP_pressure;BME280_temperature;BME280_humidity;BME280_pressure;Samples;Min_cycle;Max_cycle;Signal;HPM_P1;HPM_P2
2022/10/20 00:01:32;;;;;;;1.32;1.12;;;;;;;6.01;100.00;99874.64;1834674;77;21084;-65
2022/10/20 00:03:59;;;;;;;2.05;1.65;;;;;;;5.93;100.00;99877.83;1810217;78;21753;-65
2022/10/20 00:06:29;;;;;;;1.62;1.20;;;;;;;6.00;100.00;99883.36;1840634;78;20995;-64
2022/10/20 00:08:57;;;;;;;;;;;;;;;5.55;100.00;99877.36;1843163;78;21012;-66
2022/10/20 00:11:26;;;;;;;3.77;1.40;;;;;;;5.61;100.00;99878.52;1840763;77;20154;-67
2022/10/20 00:13:54;;;;;;;2.45;1.50;;;;;;;5.42;100.00;99884.56;1840261;78;21550;-66
2022/10/20 00:16:23;;;;;;;1.60;1.25;;;;;;;5.49;100.00;99886.16;1840827;78;21076;-66
2022/10/20 00:18:49;;;;;;;2.75;1.60;;;;;;;5.56;100.00;99890.36;1840418;78;21030;-65
2022/10/20 00:21:22;;;;;;;4.42;1.50;;;;;;;5.48;100.00;99888.38;1840765;78;21001;-66
2022/10/20 00:23:50;;;;;;;1.98;1.25;;;;;;;5.35;100.00;99894.27;1840560;78;21033;-65
2022/10/20 00:26:21;;;;;;;1.62;1.20;;;;;;;5.43;100.00;99888.47;1840831;78;21039;-65
2022/10/20 00:28:48;;;;;;;3.60;1.77;;;;;;;5.35;100.00;99879.91;1840807;77;21071;-67
2022/10/20 00:31:16;;;;;;;3.33;1.30;;;;;;;5.59;100.00;99891.63;1840720;78;21115;-65
2022/10/20 00:33:42;;;;;;;1.52;1.32;;;;;;;5.26;100.00;99890.08;1841002;78;21029;-66
2022/10/20 00:36:12;;;;;;;2.62;1.55;;;;;;;5.23;100.00;99896.67;1840580;78;21064;-67
2022/10/20 00:38:39;;;;;;;3.70;1.10;;;;;;;5.18;100.00;99901.13;1841099;77;21010;-66
2022/10/20 00:41:06;;;;;;;1.40;1.30;;;;;;;5.26;100.00;99897.91;1840552;78;21222;-66
2022/10/20 00:43:44;;;;;;;1.70;1.40;;;;;;;5.04;100.00;99900.53;1840779;77;21052;-66
2022/10/20 00:46:14;;;;;;;2.47;1.20;;;;;;;5.02;100.00;99902.30;1840579;77;21012;-64
2022/10/20 00:48:42;;;;;;;2.92;1.67;;;;;;;5.23;100.00;99905.81;1840460;78;21017;-65
2022/10/20 00:51:08;;;;;;;1.52;1.32;;;;;;;5.40;100.00;99912.46;1826093;78;21020;-66
2022/10/20 00:53:35;;;;;;;2.40;1.40;;;;;;;5.39;100.00;99909.45;1809440;78;21193;-65
2022/10/20 00:56:01;;;;;;;2.08;1.50;;;;;;;5.63;100.00;99910.25;1793394;80;21070;-66
2022/10/20 00:58:28;;;;;;;1.90;1.70;;;;;;;5.40;100.00;99909.84;1806494;79;21080;-67
2022/10/20 01:00:57;;;;;;;1.98;1.40;;;;;;;5.52;100.00;99907.44;1821800;78;21025;-66
2022/10/20 01:03:44;;;;;;;1.85;1.50;;;;;;;5.52;100.00;99911.36;1822002;78;21336;-66
2022/10/20 01:06:14;;;;;;;3.20;1.40;;;;;;;5.60;100.00;99910.31;1822002;78;21143;-66
2022/10/20 01:08:42;;;;;;;2.27;1.60;;;;;;;5.44;100.00;99904.98;1821948;78;21644;-66
2022/10/20 01:11:34;;;;;;;1.82;1.52;;;;;;;5.57;100.00;99909.08;1821951;78;20989;-67
2022/10/20 01:14:16;;;;;;;1.60;1.50;;;;;;;5.54;100.00;99907.81;1821597;78;21452;-66
2022/10/20 01:17:07;;;;;;;2.77;1.22;;;;;;;5.65;100.00;99910.22;1817854;78;21047;-67
2022/10/20 01:20:03;;;;;;;2.33;1.52;;;;;;;5.77;100.00;99907.34;1815297;78;21264;-67
2022/10/20 01:23:01;;;;;;;1.70;1.60;;;;;;;5.69;100.00;99907.97;1821857;78;21524;-66
2022/10/20 01:26:10;;;;;;;3.22;1.60;;;;;;;5.70;100.00;99902.30;1821618;78;21017;-66
2022/10/20 01:28:51;;;;;;;1.77;1.62;;;;;;;6.07;100.00;99910.23;1821214;78;21072;-65
2022/10/20 01:31:34;;;;;;;1.85;1.30;;;;;;;5.92;100.00;99914.02;1821704;78;21025;-66
2022/10/20 01:34:30;;;;;;;2.53;1.60;;;;;;;6.04;100.00;99912.92;1821555;78;21542;-64
2022/10/20 01:37:11;;;;;;;1.55;1.45;;;;;;;6.11;100.00;99910.58;1789104;78;21120;-66
2022/10/20 01:39:55;;;;;;;1.82;1.50;;;;;;;6.09;100.00;99913.22;1796729;78;21037;-66
2022/10/20 01:42:24;;;;;;;2.25;1.80;;;;;;;6.33;100.00;99914.89;1821657;78;21029;-66
2022/10/20 01:44:54;;;;;;;3.35;1.42;;;;;;;6.18;100.00;99919.16;1821929;78;21049;-65
2022/10/20 01:47:24;;;;;;;2.80;1.80;;;;;;;6.17;100.00;99921.38;1794695;78;21624;-66
2022/10/20 01:49:51;;;;;;;2.15;1.60;;;;;;;6.09;100.00;99917.14;1821589;78;21150;-65
2022/10/20 01:52:19;;;;;;;1.47;1.37;;;;;;;6.01;100.00;99920.84;1821857;78;21072;-66
2022/10/20 01:54:47;;;;;;;3.70;1.35;;;;;;;6.02;100.00;99920.79;1855278;77;20985;-65
2022/10/20 01:57:39;;;;;;;1.60;1.50;;;;;;;6.11;100.00;99917.58;1827028;77;21497;-65
2022/10/20 02:00:11;;;;;;;1.85;1.52;;;;;;;6.21;100.00;99926.92;1855578;77;21239;-66
2022/10/20 02:02:55;;;;;;;1.70;1.60;;;;;;;6.33;100.00;99918.81;1856428;77;21029;-66
2022/10/20 02:06:03;;;;;;;1.55;1.40;;;;;;;6.17;100.00;99923.98;1856350;77;21099;-66
2022/10/20 02:08:46;;;;;;;1.65;1.40;;;;;;;6.26;100.00;99929.01;1855433;77;21018;-65
2022/10/20 02:11:30;;;;;;;4.05;1.50;;;;;;;6.37;100.00;99932.21;1855241;77;21064;-65
2022/10/20 02:13:57;;;;;;;1.98;1.30;;;;;;;6.45;100.00;99930.30;1855350;77;21245;-70
2022/10/20 02:16:33;;;;;;;1.70;1.30;;;;;;;6.34;100.00;99928.38;1827055;77;21036;-66
2022/10/20 02:19:00;;;;;;;2.08;1.50;;;;;;;6.60;100.00;99937.36;1855258;77;21091;-65
2022/10/20 02:21:27;;;;;;;4.92;1.50;;;;;;;6.32;100.00;99932.77;1855288;77;21076;-66
2022/10/20 02:23:54;;;;;;;2.58;1.57;;;;;;;6.42;100.00;99939.95;1855367;77;21004;-65
2022/10/20 02:26:22;;;;;;;2.05;1.60;;;;;;;6.54;100.00;99942.76;1855002;77;21810;-66
2022/10/20 02:28:53;;;;;;;2.02;1.47;;;;;;;6.36;100.00;99944.89;1854867;77;21092;-66
2022/10/20 02:31:20;;;;;;;3.02;1.37;;;;;;;6.68;100.00;99944.59;1854986;77;21088;-65
2022/10/20 02:33:46;;;;;;;4.28;1.55;;;;;;;6.46;100.00;99949.00;1855045;77;21567;-65
2022/10/20 02:36:19;;;;;;;1.85;1.40;;;;;;;6.29;100.00;99947.23;1826758;77;21086;-66
2022/10/20 02:38:45;;;;;;;2.20;1.40;;;;;;;6.29;100.00;99957.70;1855575;77;21060;-66
2022/10/20 02:41:12;;;;;;;3.25;1.50;;;;;;;6.38;100.00;99949.64;1855126;77;22098;-66
2022/10/20 02:43:38;;;;;;;3.70;1.60;;;;;;;6.43;100.00;99953.01;1855115;77;21196;-65
2022/10/20 02:46:05;;;;;;;1.50;1.35;;;;;;;6.28;100.00;99951.61;1855246;77;20957;-66
2022/10/20 02:48:31;;;;;;;2.60;1.75;;;;;;;6.61;100.00;99958.72;1855473;77;21271;-67
2022/10/20 02:50:58;;;;;;;1.87;1.50;;;;;;;6.61;100.00;99955.66;1854964;75;21147;-64
2022/10/20 02:53:25;;;;;;;4.80;1.47;;;;;;;6.46;100.00;99959.47;1840102;77;21027;-65
2022/10/20 03:22:51;;;;;;;1.62;1.30;;;;;;;6.70;100.00;99968.97;1806139;78;26488;-68
2022/10/20 03:25:18;;;;;;;1.82;1.30;;;;;;;6.70;100.00;99969.83;1799708;79;21024;-65
2022/10/20 03:27:45;;;;;;;2.25;1.30;;;;;;;6.84;100.00;99977.35;1762565;81;21260;-65
2022/10/20 03:30:11;;;;;;;2.65;1.40;;;;;;;6.74;100.00;99975.86;1762670;81;21066;-66
2022/10/20 03:32:38;;;;;;;3.35;1.50;;;;;;;6.63;100.00;99971.33;1762656;81;21013;-66
2022/10/20 03:35:07;;;;;;;2.33;1.52;;;;;;;6.46;100.00;99972.55;1776817;80;21000;-66
2022/10/20 03:37:34;;;;;;;2.45;1.40;;;;;;;6.65;100.00;99974.77;1784188;79;21023;-65
2022/10/20 03:40:01;;;;;;;1.42;1.30;;;;;;;6.64;100.00;99970.41;1784652;80;21106;-65
2022/10/20 03:42:28;;;;;;;1.80;1.52;;;;;;;6.77;100.00;99970.55;1785713;80;21014;-66
2022/10/20 03:44:54;;;;;;;1.50;1.40;;;;;;;6.83;100.00;99972.14;1793813;80;21034;-66
2022/10/20 03:47:21;;;;;;;1.67;1.40;;;;;;;7.03;100.00;99970.35;1793819;80;20990;-66
2022/10/20 03:49:48;;;;;;;1.57;1.40;;;;;;;7.01;100.00;99974.30;1793842;80;21557;-68
2022/10/20 03:52:15;;;;;;;2.40;1.57;;;;;;;6.80;100.00;99978.31;1793818;80;21130;-67
2022/10/20 03:54:41;;;;;;;1.42;1.30;;;;;;;6.62;100.00;99980.05;1793842;78;21065;-65
2022/10/20 03:57:08;;;;;;;1.70;1.60;;;;;;;6.73;100.00;99975.44;1793747;80;21057;-66
2022/10/20 03:59:35;;;;;;;4.62;1.50;;;;;;;6.70;100.00;99976.83;1793946;80;20995;-66
2022/10/20 04:02:02;;;;;;;2.30;1.62;;;;;;;6.93;100.00;99977.13;1794174;80;21041;-65
2022/10/20 04:04:29;;;;;;;1.92;1.30;;;;;;;6.92;100.00;99978.03;1793999;80;21261;-66
2022/10/20 04:06:57;;;;;;;2.55;1.52;;;;;;;6.88;100.00;99980.77;1793849;80;21533;-66
2022/10/20 04:09:23;;;;;;;1.45;1.30;;;;;;;7.01;100.00;99981.31;1794085;80;21616;-65
2022/10/20 04:11:50;;;;;;;2.87;1.67;;;;;;;6.94;100.00;99986.69;1793883;80;21033;-66
2022/10/20 04:14:16;;;;;;;2.58;1.65;;;;;;;6.58;100.00;99988.44;1794439;80;21498;-65
2022/10/20 04:16:44;;;;;;;2.02;1.80;;;;;;;6.76;100.00;99981.89;1794180;80;21027;-65
2022/10/20 04:19:11;;;;;;;1.70;1.60;;;;;;;6.79;100.00;99987.08;1793903;80;21034;-66
2022/10/20 04:21:38;;;;;;;3.92;1.72;;;;;;;6.73;100.00;99991.14;1793882;80;22063;-67
2022/10/20 04:24:06;;;;;;;1.90;1.70;;;;;;;6.83;100.00;99995.70;1794152;78;21053;-66
2022/10/20 04:26:32;;;;;;;3.42;1.70;;;;;;;6.73;100.00;99995.06;1793914;80;21014;-66
2022/10/20 04:28:59;;;;;;;2.35;1.67;;;;;;;6.73;100.00;99997.23;1794205;79;21078;-66
2022/10/20 04:31:25;;;;;;;3.00;1.57;;;;;;;6.68;100.00;99997.78;1793811;80;21301;-66
2022/10/20 04:33:53;;;;;;;3.65;1.50;;;;;;;6.75;100.00;99998.51;1786146;80;20975;-66
2022/10/20 04:36:20;;;;;;;2.45;1.85;;;;;;;6.83;100.00;99997.89;1762792;80;21077;-66
2022/10/20 04:38:46;;;;;;;3.33;1.70;;;;;;;6.82;100.00;99997.47;1762987;81;21510;-65
2022/10/20 04:41:13;;;;;;;2.87;1.90;;;;;;;7.01;100.00;100000.49;1762871;81;21230;-67
2022/10/20 04:43:39;;;;;;;2.85;1.82;;;;;;;6.65;100.00;100004.41;1762799;81;21112;-66
2022/10/20 04:46:06;;;;;;;3.40;1.77;;;;;;;6.83;100.00;100009.67;1762856;81;21034;-66
2022/10/20 04:48:32;;;;;;;2.72;1.90;;;;;;;6.75;100.00;100001.12;1762392;81;21062;-67
2022/10/20 04:51:07;;;;;;;1.80;1.60;;;;;;;6.72;100.00;100009.06;1762684;80;21022;-66
2022/10/20 04:53:34;;;;;;;2.20;1.70;;;;;;;6.73;100.00;100016.00;1761853;80;21237;-66
2022/10/20 04:56:00;;;;;;;3.30;1.70;;;;;;;6.52;100.00;100018.66;1762637;80;20991;-67
2022/10/20 04:58:27;;;;;;;1.62;1.47;;;;;;;6.56;100.00;100020.77;1762578;80;21089;-66
2022/10/20 05:00:56;;;;;;;5.20;1.72;;;;;;;6.40;100.00;100018.48;1762716;81;21081;-67
2022/10/20 05:03:23;;;;;;;3.20;1.60;;;;;;;6.47;100.00;100019.22;1739448;81;21598;-66
2022/10/20 05:05:49;;;;;;;2.50;1.62;;;;;;;6.67;100.00;100023.98;1762784;81;21421;-67
2022/10/20 05:08:16;;;;;;;2.10;1.52;;;;;;;6.68;100.00;100028.34;1762667;81;21065;-66
2022/10/20 05:10:43;;;;;;;2.10;1.40;;;;;;;6.87;100.00;100031.38;1762595;80;21538;-67
2022/10/20 05:13:11;;;;;;;3.62;1.62;;;;;;;6.82;100.00;100034.11;1762743;80;21502;-65
2022/10/20 05:15:37;;;;;;;3.70;1.95;;;;;;;6.93;100.00;100037.34;1762692;81;21648;-66
2022/10/20 05:18:05;;;;;;;4.12;1.70;;;;;;;6.86;100.00;100031.84;1763231;80;21201;-67
2022/10/20 05:20:33;;;;;;;2.05;1.40;;;;;;;7.01;100.00;100033.67;1764323;80;21002;-66
2022/10/20 05:23:00;;;;;;;2.70;1.50;;;;;;;6.85;100.00;100040.57;1764035;81;21046;-67
2022/10/20 05:25:26;;;;;;;1.70;1.42;;;;;;;6.73;100.00;100044.79;1772788;79;21065;-66
2022/10/20 05:27:52;;;;;;;2.25;1.30;;;;;;;6.48;100.00;100040.54;1774119;80;21085;-68
2022/10/20 05:30:19;;;;;;;2.58;1.75;;;;;;;6.45;100.00;100044.55;1773938;78;21386;-66
2022/10/20 05:32:46;;;;;;;1.50;1.30;;;;;;;6.50;100.00;100040.92;1773735;78;21044;-67
2022/10/20 05:35:13;;;;;;;4.87;1.47;;;;;;;6.70;100.00;100047.48;1799398;79;21024;-67
2022/10/20 05:37:40;;;;;;;1.87;1.50;;;;;;;6.98;100.00;100054.70;1805642;79;21057;-67
2022/10/20 05:40:10;;;;;;;2.47;1.60;;;;;;;6.91;100.00;100053.53;1805722;79;21536;-67
2022/10/20 05:42:38;;;;;;;3.72;1.40;;;;;;;6.74;100.00;100051.77;1805682;79;21029;-66
2022/10/20 05:45:07;;;;;;;2.15;1.62;;;;;;;6.73;100.00;100060.49;1805400;79;21021;-67
2022/10/20 05:47:34;;;;;;;2.02;1.20;;;;;;;6.73;100.00;100065.27;1805383;79;21049;-66
2022/10/20 05:50:00;;;;;;;2.47;1.60;;;;;;;6.72;100.00;100064.02;1805554;79;21022;-67
2022/10/20 05:52:27;;;;;;;2.85;1.57;;;;;;;6.70;100.00;100060.57;1805850;79;20994;-66
2022/10/20 05:54:54;;;;;;;1.50;1.37;;;;;;;6.59;100.00;100065.17;1805771;79;21060;-67
2022/10/20 05:57:20;;;;;;;3.65;1.70;;;;;;;6.79;100.00;100069.98;1805665;79;20994;-66
2022/10/20 05:59:47;;;;;;;2.90;1.60;;;;;;;6.62;100.00;100072.95;1806121;79;21080;-67
2022/10/20 06:02:14;;;;;;;2.27;1.40;;;;;;;6.59;100.00;100082.19;1805478;79;21017;-67
2022/10/20 06:04:40;;;;;;;2.00;1.50;;;;;;;6.75;100.00;100084.87;1806035;79;21049;-67
2022/10/20 06:07:10;;;;;;;1.62;1.30;;;;;;;6.77;100.00;100087.02;1805819;79;22220;-67
2022/10/20 06:09:38;;;;;;;3.75;1.50;;;;;;;6.80;100.00;100084.77;1805986;79;21041;-66
2022/10/20 06:12:05;;;;;;;3.55;1.45;;;;;;;6.94;100.00;100088.79;1805680;79;21108;-66
2022/10/20 06:14:32;;;;;;;2.40;1.70;;;;;;;7.09;100.00;100083.66;1805940;79;21018;-66
2022/10/20 06:16:58;;;;;;;2.02;1.60;;;;;;;7.19;100.00;100086.92;1805551;79;20986;-66
2022/10/20 06:19:25;;;;;;;2.98;1.30;;;;;;;6.84;100.00;100091.67;1805522;79;21305;-66
2022/10/20 06:21:52;;;;;;;1.72;1.37;;;;;;;7.02;100.00;100095.64;1805780;79;21006;-66
2022/10/20 06:24:18;;;;;;;3.65;1.47;;;;;;;6.62;100.00;100086.03;1809726;78;21041;-66
2022/10/20 06:26:45;;;;;;;2.02;1.50;;;;;;;6.70;100.00;100086.74;1822462;78;21067;-66
2022/10/20 06:29:15;;;;;;;1.57;1.47;;;;;;;6.58;100.00;100094.83;1822637;78;21064;-66
2022/10/20 06:31:47;;;;;;;1.47;1.37;;;;;;;6.76;100.00;100091.82;1822592;78;21214;-67
2022/10/20 06:34:21;;;;;;;1.85;1.40;;;;;;;6.96;100.00;100080.91;1809617;78;21036;-67
2022/10/20 06:36:48;;;;;;;2.00;1.37;;;;;;;6.89;100.00;100095.89;1790132;80;21060;-68
2022/10/20 06:39:21;;;;;;;2.08;1.32;;;;;;;6.88;100.00;100095.95;1790202;80;21032;-68
2022/10/20 06:41:49;;;;;;;1.30;1.20;;;;;;;6.83;100.00;100097.36;1793848;77;21043;-66
2022/10/20 06:44:19;;;;;;;1.70;1.35;;;;;;;7.03;100.00;100098.66;1756446;81;21141;-64
2022/10/20 06:46:46;;;;;;;1.30;1.20;;;;;;;6.98;100.00;100105.77;1756191;80;21042;-65
2022/10/20 06:49:13;;;;;;;4.10;1.40;;;;;;;6.86;100.00;100109.06;1718149;81;21063;-65
2022/10/20 06:51:39;;;;;;;1.77;1.12;;;;;;;6.81;100.00;100114.86;1705528;84;21060;-64
2022/10/20 06:54:06;;;;;;;2.65;1.07;;;;;;;7.05;100.00;100116.05;1705533;84;21049;-65
2022/10/20 06:56:34;;;;;;;1.30;1.20;;;;;;;7.04;100.00;100121.31;1705524;84;21278;-65
2022/10/20 06:59:02;;;;;;;3.72;1.52;;;;;;;7.00;100.00;100120.99;1705542;84;20997;-65
2022/10/20 07:01:32;;;;;;;1.55;1.30;;;;;;;6.71;100.00;100123.33;1705475;84;21017;-66
2022/10/20 07:04:01;;;;;;;2.25;1.25;;;;;;;6.82;100.00;100122.25;1705742;82;21045;-65
2022/10/20 07:06:31;;;;;;;3.47;1.60;;;;;;;6.76;100.00;100118.00;1705875;84;21048;-64
2022/10/20 07:08:57;;;;;;;1.30;1.20;;;;;;;6.66;100.00;100129.56;1705548;84;21208;-65
2022/10/20 07:11:27;;;;;;;1.55;1.45;;;;;;;6.89;100.00;100124.69;1705616;84;21013;-65
2022/10/20 07:13:58;;;;;;;1.80;1.30;;;;;;;6.81;100.00;100131.87;1705690;84;21040;-65
2022/10/20 07:16:28;;;;;;;1.50;1.40;;;;;;;6.78;100.00;100131.91;1705781;84;21144;-65
2022/10/20 07:18:56;;;;;;;2.12;1.72;;;;;;;6.40;100.00;100136.20;1705659;84;21064;-66
2022/10/20 07:21:29;;;;;;;1.60;1.50;;;;;;;6.58;100.00;100139.31;1705498;84;21100;-65
2022/10/20 07:23:56;;;;;;;1.95;1.40;;;;;;;6.55;100.00;100140.25;1705427;84;21583;-66
2022/10/20 07:26:26;;;;;;;1.42;1.32;;;;;;;6.98;100.00;100131.95;1705692;84;22074;-66
2022/10/20 07:28:56;;;;;;;1.47;1.30;;;;;;;6.95;100.00;100138.11;1705520;84;21120;-65
2022/10/20 07:31:38;;;;;;;1.75;1.65;;;;;;;7.03;100.00;100139.24;1705746;84;21092;-63
2022/10/20 07:34:06;;;;;;;1.50;1.40;;;;;;;7.03;100.00;100139.24;1705701;84;21249;-65
2022/10/20 07:36:33;;;;;;;1.35;1.25;;;;;;;6.71;100.00;100149.50;1705547;84;21122;-65
2022/10/20 07:39:04;;;;;;;1.70;1.40;;;;;;;6.79;100.00;100151.12;1705292;84;21069;-65
2022/10/20 07:41:31;;;;;;;1.62;1.27;;;;;;;7.01;100.00;100146.27;1705808;84;21064;-64
2022/10/20 07:43:58;;;;;;;2.72;1.62;;;;;;;6.85;100.00;100149.20;1705372;81;21100;-63
2022/10/20 07:46:26;;;;;;;2.17;1.70;;;;;;;7.11;100.00;100155.66;1705563;84;21143;-65
2022/10/20 07:48:52;;;;;;;2.60;1.40;;;;;;;6.98;100.00;100149.81;1705291;82;21080;-66
2022/10/20 07:51:33;;;;;;;3.50;1.60;;;;;;;6.85;100.00;100157.06;1705277;84;21089;-65
2022/10/20 07:54:08;;;;;;;3.05;1.37;;;;;;;6.94;100.00;100151.63;1705283;84;21056;-65
2022/10/20 07:56:40;;;;;;;1.60;1.50;;;;;;;7.07;100.00;100148.76;1705280;84;21037;-64
2022/10/20 07:59:07;;;;;;;2.08;1.80;;;;;;;7.02;100.00;100158.48;1705556;84;21224;-64
2022/10/20 08:01:34;;;;;;;2.27;1.80;;;;;;;7.07;100.00;100151.38;1705111;84;21108;-64
2022/10/20 08:04:00;;;;;;;2.37;1.80;;;;;;;7.15;100.00;100157.28;1705431;84;21091;-65
2022/10/20 08:06:28;;;;;;;2.10;1.70;;;;;;;7.06;100.00;100155.77;1705501;84;21117;-65
2022/10/20 08:08:56;;;;;;;1.80;1.70;;;;;;;7.17;100.00;100156.80;1705355;84;21553;-64
2022/10/20 08:11:24;;;;;;;3.27;1.62;;;;;;;7.31;100.00;100159.97;1705282;84;21086;-65
2022/10/20 08:13:51;;;;;;;2.62;2.00;;;;;;;7.27;100.00;100157.03;1705259;84;21061;-65
2022/10/20 08:16:18;;;;;;;2.80;2.20;;;;;;;7.40;100.00;100156.73;1705461;84;21601;-67
2022/10/20 08:18:48;;;;;;;2.67;2.00;;;;;;;7.32;100.00;100161.70;1705373;84;21560;-65
2022/10/20 08:21:17;;;;;;;2.27;2.08;;;;;;;7.20;100.00;100160.69;1705550;84;21123;-66
2022/10/20 08:23:46;;;;;;;3.58;2.08;;;;;;;7.33;100.00;100158.63;1705912;84;21212;-64
2022/10/20 08:26:23;;;;;;;2.53;1.87;;;;;;;7.40;100.00;100164.59;1705500;84;21100;-64
2022/10/20 08:28:51;;;;;;;2.12;1.92;;;;;;;7.20;100.00;100171.17;1705554;84;21606;-64
2022/10/20 08:31:18;;;;;;;3.72;1.98;;;;;;;7.22;100.00;100174.58;1705500;84;21580;-66
2022/10/20 08:33:44;;;;;;;3.33;2.15;;;;;;;7.33;100.00;100167.34;1699841;84;22101;-65
2022/10/20 08:36:13;;;;;;;3.27;2.50;;;;;;;7.33;100.00;100167.34;1675536;84;22032;-65
2022/10/20 08:38:40;;;;;;;2.15;1.90;;;;;;;7.38;100.00;100172.48;1675658;85;21271;-64
2022/10/20 08:41:15;;;;;;;3.72;2.40;;;;;;;7.51;100.00;100175.69;1675537;84;21102;-65
2022/10/20 08:43:42;;;;;;;4.05;2.52;;;;;;;7.47;100.00;100179.27;1686342;84;21062;-65
2022/10/20 08:46:14;;;;;;;2.33;2.12;;;;;;;7.54;100.00;100178.22;1700596;84;21013;-66
2022/10/20 08:48:41;;;;;;;5.03;2.40;;;;;;;7.40;100.00;100186.86;1700469;83;21495;-64
2022/10/20 08:51:19;;;;;;;3.40;2.58;;;;;;;7.42;100.00;100185.07;1700444;84;21065;-63
2022/10/20 08:53:46;;;;;;;2.40;2.20;;;;;;;7.51;100.00;100191.41;1700742;84;21064;-66
2022/10/20 08:56:13;;;;;;;2.70;1.95;;;;;;;7.48;100.00;100196.73;1700736;84;21091;-63
2022/10/20 08:58:45;;;;;;;6.53;2.22;;;;;;;7.67;100.00;100190.14;1700534;84;21122;-63
2022/10/20 09:01:28;;;;;;;3.75;2.60;;;;;;;7.61;100.00;100207.77;1700635;84;21171;-65
2022/10/20 09:03:58;;;;;;;2.75;1.82;;;;;;;7.59;100.00;100203.87;1700688;84;21112;-64
2022/10/20 09:06:25;;;;;;;2.42;2.15;;;;;;;7.72;100.00;100210.55;1700997;84;21048;-65
2022/10/20 09:08:52;;;;;;;5.55;2.83;;;;;;;7.70;100.00;100206.24;1700678;84;21151;-65
2022/10/20 09:11:30;;;;;;;5.12;3.05;;;;;;;7.85;100.00;100210.27;1648677;84;21083;-64
2022/10/20 09:13:57;;;;;;;6.10;3.30;;;;;;;7.92;100.00;100213.16;1700656;84;21122;-64
2022/10/20 09:16:37;;;;;;;3.12;2.22;;;;;;;7.75;100.00;100214.42;1700330;84;21107;-64
2022/10/20 09:19:08;;;;;;;4.45;2.50;;;;;;;7.79;100.00;100215.20;1700758;84;26609;-63
2022/10/20 09:21:36;;;;;;;9.53;2.65;;;;;;;7.84;100.00;100215.08;1700570;84;21681;-65
2022/10/20 09:24:04;;;;;;;4.58;3.00;;;;;;;7.70;100.00;100215.42;1622059;84;21119;-66
2022/10/20 09:26:44;;;;;;;4.37;2.62;;;;;;;8.16;100.00;100217.75;1700413;84;21202;-65
2022/10/20 09:29:16;;;;;;;2.98;2.55;;;;;;;8.32;100.00;100222.61;1700539;84;21080;-65
2022/10/20 09:31:47;;;;;;;3.58;2.58;;;;;;;8.43;100.00;100221.91;1700537;84;21096;-64
2022/10/20 09:34:28;;;;;;;2.90;2.47;;;;;;;8.40;100.00;100233.81;1712566;82;21563;-64
2022/10/20 09:37:09;;;;;;;3.62;2.35;;;;;;;8.31;100.00;100231.41;1731848;82;21032;-64
2022/10/20 09:39:48;;;;;;;2.67;2.30;;;;;;;8.36;100.00;100229.52;1731353;82;21250;-65
2022/10/20 09:42:22;;;;;;;4.40;2.47;;;;;;;8.39;100.00;100222.40;1731214;82;21574;-65
2022/10/20 09:44:53;;;;;;;4.87;2.80;;;;;;;8.34;100.00;100236.10;1717075;82;21385;-64
2022/10/20 09:47:21;;;;;;;4.42;2.77;;;;;;;8.30;100.00;100240.16;1712568;82;21084;-65
2022/10/20 09:49:56;;;;;;;3.85;2.40;;;;;;;8.28;100.00;100240.64;1712578;83;22185;-63
2022/10/20 09:52:29;;;;;;;3.98;2.12;;;;;;;8.23;100.00;100237.28;1686164;83;21908;-66
2022/10/20 09:55:00;;;;;;;3.35;2.70;;;;;;;8.26;100.00;100238.50;1712395;83;21119;-64
2022/10/20 09:57:26;;;;;;;2.35;2.10;;;;;;;8.18;100.00;100243.50;1712154;83;21564;-65
2022/10/20 09:59:54;;;;;;;4.00;3.02;;;;;;;8.20;100.00;100245.64;1712372;83;21602;-64
2022/10/20 10:02:26;;;;;;;6.78;3.52;;;;;;;8.36;100.00;100243.95;1712441;83;21042;-65
2022/10/20 10:04:53;;;;;;;3.27;2.40;;;;;;;8.59;100.00;100248.16;1712247;83;21221;-66
2022/10/20 10:07:27;;;;;;;2.37;2.10;;;;;;;8.53;100.00;100248.31;1711877;83;22045;-64
2022/10/20 10:10:01;;;;;;;4.50;2.33;;;;;;;8.40;100.00;100246.94;1712204;83;21651;-65
2022/10/20 10:12:29;;;;;;;7.78;3.02;;;;;;;8.75;100.00;100253.00;1712018;83;21059;-65
2022/10/20 10:15:04;;;;;;;4.85;2.65;;;;;;;8.74;100.00;100257.40;1712468;83;21095;-64
2022/10/20 10:17:36;;;;;;;3.80;2.62;;;;;;;8.74;100.00;100260.03;1712415;83;21648;-65
2022/10/20 10:20:18;;;;;;;5.50;3.00;;;;;;;8.52;100.00;100257.10;1712492;83;22033;-64
2022/10/20 10:22:44;;;;;;;4.10;2.67;;;;;;;8.67;100.00;100265.47;1712308;83;21030;-65
2022/10/20 10:25:23;;;;;;;12.10;4.90;;;;;;;9.02;100.00;100264.51;1712596;83;21068;-64
2022/10/20 12:27:24;;;;;;;3.83;2.85;;;;;;;7.18;100.00;100372.02;1859506;77;27946;-70
2022/10/20 12:30:31;;;;;;;3.80;3.40;;;;;;;7.14;100.00;100382.13;1829031;78;21020;-70
2022/10/20 12:33:09;;;;;;;3.72;3.22;;;;;;;7.15;100.00;100387.77;1826314;78;21156;-70
2022/10/20 12:36:01;;;;;;;4.92;3.27;;;;;;;7.26;100.00;100383.19;1812218;78;21012;-70
2022/10/20 12:38:28;;;;;;;2.90;2.50;;;;;;;7.27;100.00;100387.55;1831361;78;21575;-69
2022/10/20 12:40:57;;;;;;;4.37;2.80;;;;;;;7.26;100.00;100393.67;1824882;78;21036;-69
2022/10/20 12:43:41;;;;;;;2.67;2.20;;;;;;;7.33;100.00;100405.75;1788766;78;21587;-68
2022/10/20 12:46:13;;;;;;;3.67;3.10;;;;;;;7.26;100.00;100406.77;1809353;78;21100;-69
2022/10/20 12:48:44;;;;;;;3.40;2.65;;;;;;;7.38;100.00;100407.42;1824310;78;21015;-69
2022/10/20 12:51:24;;;;;;;4.53;3.25;;;;;;;7.38;100.00;100416.59;1828900;78;21005;-70
2022/10/20 12:53:59;;;;;;;3.12;2.83;;;;;;;7.33;100.00;100413.61;1828704;78;21013;-70
2022/10/20 12:56:29;;;;;;;3.90;2.42;;;;;;;7.59;100.00;100420.09;1819098;78;21088;-70
2022/10/20 12:59:29;;;;;;;6.70;2.90;;;;;;;7.62;100.00;100430.54;1820570;78;21888;-69
2022/10/20 13:02:18;;;;;;;7.58;3.65;;;;;;;7.54;100.00;100428.05;1799408;78;21524;-70
2022/10/20 13:05:08;;;;;;;3.83;2.87;;;;;;;7.67;100.00;100440.94;1819420;78;21614;-70
2022/10/20 13:07:51;;;;;;;6.25;3.25;;;;;;;7.65;100.00;100445.34;1823454;78;21005;-70
2022/10/20 13:10:34;;;;;;;5.03;3.40;;;;;;;7.69;100.00;100454.42;1825980;78;21355;-70
2022/10/20 13:13:07;;;;;;;4.85;3.27;;;;;;;7.81;100.00;100460.31;1829077;78;21886;-69
2022/10/20 13:15:46;;;;;;;4.45;2.80;;;;;;;7.73;100.00;100461.77;1818743;78;21512;-69
2022/10/20 13:18:29;;;;;;;4.08;3.30;;;;;;;7.70;100.00;100465.77;1798937;78;21043;-69
2022/10/20 13:21:23;;;;;;;3.92;3.00;;;;;;;7.81;100.00;100457.24;1796344;79;21032;-70
2022/10/20 13:24:15;;;;;;;4.08;3.12;;;;;;;7.78;100.00;100471.73;1796060;79;21024;-70
2022/10/20 13:26:47;;;;;;;3.83;2.70;;;;;;;7.85;100.00;100476.41;1791957;79;22222;-70
2022/10/20 13:29:26;;;;;;;5.10;2.80;;;;;;;7.80;100.00;100472.99;1782425;79;21056;-70
2022/10/20 13:32:26;;;;;;;5.12;2.52;;;;;;;7.76;100.00;100482.24;1756519;79;21068;-69
2022/10/20 13:35:17;;;;;;;7.47;3.30;;;;;;;7.85;100.00;100485.59;1781997;79;22188;-68
2022/10/20 13:38:00;;;;;;;8.50;3.00;;;;;;;7.92;100.00;100496.37;1793860;78;21076;-70
2022/10/20 13:40:39;;;;;;;3.95;2.85;;;;;;;7.99;100.00;100497.97;1786404;79;21525;-68
2022/10/20 13:43:54;;;;;;;3.83;3.20;;;;;;;8.10;100.00;100505.17;1786073;79;21127;-71
2022/10/20 13:46:49;;;;;;;6.92;3.40;;;;;;;7.82;100.00;100505.30;1777624;79;21048;-71
2022/10/20 13:49:41;;;;;;;5.87;3.00;;;;;;;7.75;100.00;100503.23;1793894;80;21517;-69
2022/10/20 13:52:13;;;;;;;5.25;2.80;;;;;;;7.85;100.00;100510.50;1794148;79;21020;-70
2022/10/20 13:54:43;;;;;;;4.15;3.05;;;;;;;7.92;100.00;100517.34;1786011;79;21389;-70
2022/10/20 13:57:31;;;;;;;6.40;3.02;;;;;;;7.90;100.00;100521.75;1719146;82;21037;-70
2022/10/20 14:00:03;;;;;;;4.62;3.33;;;;;;;7.94;100.00;100520.80;1708070;83;21093;-70
2022/10/20 14:02:34;;;;;;;5.40;3.95;;;;;;;7.74;100.00;100537.77;1747691;81;21033;-70
2022/10/20 14:05:13;;;;;;;3.77;3.12;;;;;;;7.91;100.00;100531.33;1737366;81;21050;-69
2022/10/20 14:07:43;;;;;;;7.42;3.20;;;;;;;8.09;100.00;100533.59;1741814;81;22161;-70
2022/10/20 14:10:47;;;;;;;5.17;3.37;;;;;;;7.86;100.00;100539.29;1741931;81;20974;-70
2022/10/20 14:13:19;;;;;;;4.55;3.40;;;;;;;7.95;100.00;100543.05;1732657;82;21061;-70
2022/10/20 14:15:50;;;;;;;6.78;3.12;;;;;;;8.02;100.00;100547.73;1756196;81;20981;-70
2022/10/20 14:20:40;;;;;;;4.28;3.33;;;;;;;8.01;100.00;100553.02;1800065;79;28092;-69